createdAt,value
2018-08-06T04:00:59.680Z,1.10
2018-08-06T04:01:59.556Z,2.50
2018-08-06T04:03:52.251Z,2.40
2018-08-06T04:04:52.129Z,2.20
2018-08-06T04:06:44.807Z,2.20
2018-08-06T04:07:44.699Z,2.30
2018-08-06T04:09:37.400Z,2.40
2018-08-06T04:10:37.282Z,2.50
2018-08-06T04:12:29.953Z,2.20
2018-08-06T04:13:29.943Z,2.50
2018-08-06T04:15:22.540Z,2.20
2018-08-06T04:16:22.425Z,2.40
2018-08-06T04:18:15.110Z,2.30
2018-08-06T04:19:15.004Z,2.30
2018-08-06T04:21:07.699Z,2.30
2018-08-06T04:22:07.575Z,2.30
2018-08-06T04:24:00.267Z,2.30
2018-08-06T04:25:00.148Z,2.60
2018-08-06T04:26:52.824Z,2.20
2018-08-06T04:27:52.712Z,2.40
2018-08-06T04:29:45.415Z,2.50
2018-08-06T04:30:45.288Z,2.40
2018-08-06T04:32:37.989Z,2.60
2018-08-06T04:33:37.861Z,2.90
2018-08-06T04:35:30.568Z,2.70
2018-08-06T04:36:30.439Z,2.70
2018-08-06T04:38:23.170Z,3.00
2018-08-06T04:39:23.008Z,2.60
2018-08-06T04:41:15.714Z,2.50
2018-08-06T04:42:15.593Z,2.50
2018-08-06T04:44:08.285Z,2.50
2018-08-06T04:45:08.164Z,2.60
2018-08-06T04:47:00.844Z,2.40
2018-08-06T04:48:00.736Z,2.30
2018-08-06T04:49:53.433Z,2.80
2018-08-06T04:50:53.307Z,2.60
2018-08-06T04:52:45.984Z,2.60
2018-08-06T04:53:45.884Z,2.50
2018-08-06T04:55:38.584Z,2.60
2018-08-06T04:56:38.463Z,2.40
2018-08-06T04:58:31.138Z,2.60
2018-08-06T04:59:31.068Z,2.50
2018-08-06T05:01:23.729Z,2.20
2018-08-06T05:02:23.602Z,2.70
2018-08-06T05:04:16.306Z,2.50
2018-08-06T05:05:16.212Z,2.50
2018-08-06T05:07:08.876Z,2.50
2018-08-06T05:08:08.769Z,2.70
2018-08-06T05:10:01.460Z,2.50
2018-08-06T05:11:01.342Z,2.50
2018-08-06T05:12:54.020Z,2.80
2018-08-06T05:13:53.913Z,2.70
2018-08-06T05:15:46.607Z,2.60
2018-08-06T05:16:46.481Z,2.80
2018-08-06T05:18:39.183Z,2.40
2018-08-06T05:19:39.055Z,2.40
2018-08-06T05:21:31.732Z,2.40
2018-08-06T05:22:31.636Z,2.40
2018-08-06T05:24:24.331Z,2.20
2018-08-06T05:25:24.211Z,2.30
2018-08-06T05:27:16.892Z,2.60
2018-08-06T05:28:16.789Z,2.30
2018-08-06T05:30:09.513Z,2.50
2018-08-06T05:31:09.431Z,2.50
2018-08-06T05:33:02.066Z,2.20
2018-08-06T05:34:01.970Z,2.40
2018-08-06T05:35:54.667Z,2.40
2018-08-06T05:36:54.550Z,2.20
2018-08-06T05:38:47.235Z,2.30
2018-08-06T05:39:47.136Z,2.30
2018-08-06T05:41:39.831Z,2.20
2018-08-06T05:42:39.711Z,2.60
2018-08-06T05:44:32.402Z,2.60
2018-08-06T05:45:32.278Z,2.30
2018-08-06T05:47:24.957Z,2.40
2018-08-06T05:48:24.853Z,2.60
2018-08-06T05:50:17.549Z,2.30
2018-08-06T05:51:17.451Z,2.60
2018-08-06T05:53:10.114Z,2.50
2018-08-06T05:54:10.014Z,2.20
2018-08-06T05:56:02.711Z,2.20
2018-08-06T05:57:02.584Z,2.00
2018-08-06T05:58:55.260Z,2.00
2018-08-06T05:59:55.161Z,2.00
2018-08-06T06:01:47.861Z,2.20
2018-08-06T06:02:47.747Z,2.20
2018-08-06T06:04:40.443Z,2.10
2018-08-06T06:05:40.316Z,2.30
2018-08-06T06:07:33.001Z,2.30
2018-08-06T06:08:32.894Z,12.50
2018-08-06T06:10:25.590Z,2.10
2018-08-06T06:11:25.487Z,2.00
2018-08-06T06:13:18.150Z,2.40
2018-08-06T06:14:18.044Z,2.10
2018-08-06T06:16:10.749Z,2.00
2018-08-06T06:17:10.626Z,2.20
2018-08-06T06:19:03.344Z,2.20
2018-08-06T06:20:03.214Z,2.20
2018-08-06T06:21:55.926Z,1.90
2018-08-06T06:22:55.792Z,2.10
2018-08-06T06:24:48.484Z,2.10
2018-08-06T06:25:48.396Z,2.10
2018-08-06T06:27:41.047Z,2.00
2018-08-06T06:28:40.996Z,2.00
2018-08-06T06:30:33.675Z,2.10
2018-08-06T06:31:33.515Z,2.00
2018-08-06T06:33:26.200Z,1.90
2018-08-06T06:34:26.155Z,2.10
2018-08-06T06:36:18.797Z,2.00
2018-08-06T06:37:18.674Z,2.10
2018-08-06T06:39:11.373Z,1.90
2018-08-06T06:40:11.249Z,2.20
2018-08-06T06:42:03.928Z,2.20
2018-08-06T06:43:03.829Z,1.90
2018-08-06T06:44:56.532Z,1.80
2018-08-06T06:45:56.423Z,1.80
2018-08-06T06:47:49.106Z,1.50
2018-08-06T06:48:49.039Z,1.80
2018-08-06T06:50:41.725Z,1.90
2018-08-06T06:51:41.609Z,1.80
2018-08-06T06:53:34.304Z,1.90
2018-08-06T06:54:34.289Z,1.50
2018-08-06T06:56:26.932Z,1.90
2018-08-06T06:57:26.824Z,1.60
2018-08-06T06:59:19.548Z,2.00
2018-08-06T07:00:19.429Z,1.70
2018-08-06T07:02:12.134Z,2.00
2018-08-06T07:03:12.049Z,2.00
2018-08-06T07:05:04.785Z,1.70
2018-08-06T07:06:04.672Z,2.20
2018-08-06T07:07:57.385Z,1.90
2018-08-06T07:08:57.293Z,1.50
2018-08-06T07:10:50.021Z,2.00
2018-08-06T07:11:49.916Z,1.80
2018-08-06T07:13:42.675Z,1.90
2018-08-06T07:14:42.532Z,1.60
2018-08-06T07:16:35.264Z,2.10
2018-08-06T07:17:35.160Z,2.10
2018-08-06T07:19:27.892Z,1.60
2018-08-06T07:20:27.780Z,2.10
2018-08-06T07:22:20.496Z,2.00
2018-08-06T07:23:20.401Z,1.70
2018-08-06T07:25:13.139Z,1.90
2018-08-06T07:26:13.034Z,1.80
2018-08-06T07:28:05.742Z,2.00
2018-08-06T07:29:05.660Z,2.30
2018-08-06T07:30:58.395Z,2.30
2018-08-06T07:31:58.296Z,1.80
2018-08-06T07:33:51.038Z,1.90
2018-08-06T07:34:50.924Z,1.90
2018-08-06T07:36:43.657Z,2.00
2018-08-06T07:37:43.554Z,2.20
2018-08-06T07:39:36.282Z,2.10
2018-08-06T07:40:36.182Z,2.30
2018-08-06T07:42:28.890Z,1.60
2018-08-06T07:43:28.802Z,2.00
2018-08-06T07:45:21.552Z,2.90
2018-08-06T07:46:21.434Z,1.80
2018-08-06T07:48:14.177Z,1.70
2018-08-06T07:49:14.057Z,2.00
2018-08-06T07:51:06.795Z,1.70
2018-08-06T07:52:06.690Z,2.30
2018-08-06T07:53:59.407Z,2.60
2018-08-06T07:54:59.318Z,2.70
2018-08-06T07:56:52.053Z,1.70
2018-08-06T07:57:51.940Z,1.90
2018-08-06T07:59:44.715Z,1.40
2018-08-06T08:00:44.572Z,1.60
2018-08-06T08:02:37.292Z,1.60
2018-08-06T08:03:37.211Z,2.10
2018-08-06T08:05:29.936Z,1.70
2018-08-06T08:06:29.900Z,1.60
2018-08-06T08:08:22.553Z,1.70
2018-08-06T08:09:22.470Z,1.60
2018-08-06T08:11:15.197Z,1.90
2018-08-06T08:12:15.097Z,1.70
2018-08-06T08:14:07.817Z,1.50
2018-08-06T08:15:07.729Z,1.80
2018-08-06T08:17:00.455Z,1.30
2018-08-06T08:18:00.358Z,1.70
2018-08-06T08:19:53.111Z,1.50
2018-08-06T08:20:52.982Z,1.30
2018-08-06T08:22:45.722Z,1.70
2018-08-06T08:23:45.624Z,1.70
2018-08-06T08:25:38.364Z,1.70
2018-08-06T08:26:38.259Z,1.50
2018-08-06T08:28:30.966Z,1.50
2018-08-06T08:29:30.886Z,1.60
2018-08-06T08:31:23.608Z,1.70
2018-08-06T08:32:23.523Z,1.50
2018-08-06T08:34:16.223Z,1.50
2018-08-06T08:35:16.123Z,1.80
2018-08-06T08:37:08.852Z,1.60
2018-08-06T08:38:08.745Z,1.60
2018-08-06T08:40:01.478Z,1.40
2018-08-06T08:41:01.364Z,1.50
2018-08-06T08:42:54.081Z,1.60
2018-08-06T08:43:53.989Z,1.80
2018-08-06T08:45:46.715Z,1.50
2018-08-06T08:46:46.604Z,1.50
2018-08-06T08:48:39.308Z,1.50
2018-08-06T08:49:39.224Z,1.60
2018-08-06T08:51:31.955Z,1.70
2018-08-06T08:52:31.924Z,1.60
2018-08-06T08:54:24.569Z,1.60
2018-08-06T08:55:24.445Z,1.60
2018-08-06T08:57:17.149Z,1.70
2018-08-06T08:58:17.048Z,1.70
2018-08-06T09:00:09.771Z,1.40
2018-08-06T09:01:09.665Z,1.80
2018-08-06T09:03:02.362Z,1.60
2018-08-06T09:04:02.263Z,1.40
2018-08-06T09:05:54.979Z,1.70
2018-08-06T09:06:54.867Z,1.50
2018-08-06T09:08:47.560Z,1.40
2018-08-06T09:09:47.473Z,1.60
2018-08-06T09:11:40.184Z,1.60
2018-08-06T09:12:40.069Z,1.50
2018-08-06T09:14:32.806Z,1.50
2018-08-06T09:15:32.664Z,1.40
2018-08-06T09:17:25.361Z,1.30
2018-08-06T09:18:25.276Z,1.50
2018-08-06T09:20:17.979Z,1.50
2018-08-06T09:21:17.922Z,1.40
2018-08-06T09:23:10.561Z,1.60
2018-08-06T09:24:10.466Z,1.50
2018-08-06T09:26:03.183Z,1.70
2018-08-06T09:27:03.058Z,1.40
2018-08-06T09:28:55.756Z,1.60
2018-08-06T09:29:55.655Z,1.40
2018-08-06T09:31:48.367Z,1.50
2018-08-06T09:32:48.254Z,1.40
2018-08-06T09:34:40.945Z,1.70
2018-08-06T09:35:40.847Z,1.60
2018-08-06T09:37:33.571Z,1.40
2018-08-06T09:38:33.444Z,1.30
2018-08-06T09:40:26.167Z,1.70
2018-08-06T09:41:26.042Z,1.60
2018-08-06T09:43:18.734Z,1.80
2018-08-06T09:44:18.677Z,1.50
2018-08-06T09:46:11.360Z,1.60
2018-08-06T09:47:11.235Z,1.90
2018-08-06T09:49:03.932Z,1.30
2018-08-06T09:50:03.833Z,1.60
2018-08-06T09:51:56.543Z,1.50
2018-08-06T09:52:56.426Z,1.40
2018-08-06T09:54:49.126Z,1.50
2018-08-06T09:57:01.828Z,1.40
2018-08-06T09:58:01.716Z,1.60
2018-08-06T10:02:47.029Z,1.40
2018-08-06T10:03:46.914Z,1.60
2018-08-06T10:05:39.783Z,1.40
2018-08-06T10:06:39.664Z,1.30
2018-08-06T10:08:32.240Z,1.70
2018-08-06T10:09:32.116Z,1.60
2018-08-06T10:11:24.836Z,1.80
2018-08-06T10:12:24.705Z,1.40
2018-08-06T10:14:17.448Z,1.80
2018-08-06T10:15:17.347Z,1.70
2018-08-06T10:20:02.623Z,1.60
2018-08-06T10:21:02.513Z,1.40
2018-08-06T10:22:55.259Z,1.80
2018-08-06T10:23:55.138Z,1.70
2018-08-06T10:25:47.844Z,1.70
2018-08-06T10:26:47.740Z,1.90
2018-08-06T10:28:40.424Z,1.70
2018-08-06T10:29:40.332Z,1.80
2018-08-06T10:31:33.039Z,1.50
2018-08-06T10:32:32.928Z,1.40
2018-08-06T10:34:25.623Z,1.70
2018-08-06T10:35:25.528Z,1.40
2018-08-06T10:37:18.267Z,1.30
2018-08-06T10:38:18.239Z,1.50
2018-08-06T10:40:10.806Z,1.60
2018-08-06T10:41:10.716Z,1.90
2018-08-06T10:43:03.422Z,1.70
2018-08-06T10:44:03.307Z,1.80
2018-08-06T10:45:56.016Z,1.60
2018-08-06T10:46:55.906Z,2.10
2018-08-06T10:48:48.691Z,1.70
2018-08-06T10:49:48.503Z,1.70
2018-08-06T10:51:41.212Z,2.00
2018-08-06T10:52:41.091Z,1.70
2018-08-06T10:54:33.783Z,1.60
2018-08-06T10:55:33.683Z,1.70
2018-08-06T10:57:26.398Z,1.80
2018-08-06T10:58:26.284Z,1.70
2018-08-06T11:00:18.975Z,1.70
2018-08-06T11:01:18.892Z,1.70
2018-08-06T11:03:11.596Z,1.50
2018-08-06T11:04:11.478Z,1.60
2018-08-06T11:06:04.188Z,1.50
2018-08-06T11:07:04.100Z,2.00
2018-08-06T11:08:56.803Z,1.40
2018-08-06T11:09:56.671Z,1.60
2018-08-06T11:11:49.379Z,2.10
2018-08-06T11:12:49.264Z,1.40
2018-08-06T11:14:41.976Z,1.60
2018-08-06T11:15:41.864Z,1.60
2018-08-06T11:17:34.575Z,2.10
2018-08-06T11:18:34.459Z,1.50
2018-08-06T11:20:27.171Z,1.80
2018-08-06T11:21:27.060Z,1.80
2018-08-06T11:23:19.767Z,1.70
2018-08-06T11:24:19.654Z,1.80
2018-08-06T11:26:12.368Z,1.60
2018-08-06T11:27:12.258Z,1.70
2018-08-06T11:29:04.950Z,1.60
2018-08-06T11:30:04.855Z,1.70
2018-08-06T11:31:57.591Z,1.60
2018-08-06T11:32:57.478Z,1.60
2018-08-06T11:34:50.184Z,1.60
2018-08-06T11:35:50.090Z,1.80
2018-08-06T11:37:42.795Z,1.60
2018-08-06T11:38:42.686Z,1.90
2018-08-06T11:40:35.407Z,1.90
2018-08-06T11:41:35.318Z,1.90
2018-08-06T11:43:28.005Z,1.80
2018-08-06T11:44:27.890Z,1.70
2018-08-06T11:46:20.610Z,1.90
2018-08-06T11:47:20.498Z,1.70
2018-08-06T11:49:13.191Z,1.80
2018-08-06T11:50:13.189Z,1.80
2018-08-06T11:52:05.806Z,1.70
2018-08-06T11:53:05.694Z,1.80
2018-08-06T11:54:58.400Z,2.00
2018-08-06T11:55:58.298Z,1.60
2018-08-06T11:57:51.009Z,1.90
2018-08-06T11:58:50.896Z,1.80
2018-08-06T12:00:43.613Z,2.00
2018-08-06T12:01:43.500Z,1.80
2018-08-06T12:03:36.203Z,2.00
2018-08-06T12:04:36.118Z,1.90
2018-08-06T12:06:28.820Z,2.00
2018-08-06T12:07:28.706Z,2.10
2018-08-06T12:09:21.403Z,1.80
2018-08-06T12:10:21.325Z,1.80
2018-08-06T12:12:14.025Z,1.80
2018-08-06T12:13:13.909Z,1.90
2018-08-06T12:15:06.648Z,1.80
2018-08-06T12:16:06.521Z,1.90
2018-08-06T12:17:59.222Z,2.10
2018-08-06T12:18:59.106Z,1.60
2018-08-06T12:20:51.874Z,1.70
2018-08-06T12:21:51.707Z,2.20
2018-08-06T12:23:44.399Z,1.90
2018-08-06T12:24:44.320Z,2.00
2018-08-06T12:26:37.020Z,1.80
2018-08-06T12:27:36.902Z,1.60
2018-08-06T12:29:29.622Z,1.90
2018-08-06T12:30:29.520Z,1.70
2018-08-06T12:32:22.242Z,1.90
2018-08-06T12:33:22.122Z,2.10
2018-08-06T12:35:15.000Z,1.60
2018-08-06T12:36:14.902Z,1.90
2018-08-06T12:38:07.680Z,1.70
2018-08-06T12:39:07.496Z,2.00
2018-08-06T12:41:00.208Z,1.90
2018-08-06T12:42:00.093Z,1.80
2018-08-06T12:43:52.792Z,1.90
2018-08-06T12:44:52.697Z,2.10
2018-08-06T12:46:45.404Z,1.90
2018-08-06T12:47:45.290Z,1.70
2018-08-06T12:49:38.010Z,2.00
2018-08-06T12:50:37.914Z,1.70
2018-08-06T12:52:30.623Z,1.80
2018-08-06T12:53:30.507Z,2.00
2018-08-06T12:55:23.201Z,1.70
2018-08-06T12:56:23.110Z,1.90
2018-08-06T12:58:15.832Z,2.20
2018-08-06T12:59:15.719Z,2.10
2018-08-06T13:01:08.436Z,2.10
2018-08-06T13:02:09.388Z,1.80
2018-08-06T13:04:01.024Z,1.80
2018-08-06T13:05:00.944Z,1.90
2018-08-06T13:06:53.640Z,1.70
2018-08-06T13:07:53.524Z,1.80
2018-08-06T13:09:46.227Z,1.90
2018-08-06T13:10:46.138Z,1.90
2018-08-06T13:12:38.861Z,1.70
2018-08-06T13:13:38.725Z,1.90
2018-08-06T13:15:31.445Z,1.90
2018-08-06T13:16:31.349Z,1.90
2018-08-06T13:18:24.068Z,1.80
2018-08-06T13:19:23.941Z,1.80
2018-08-06T13:21:16.666Z,1.60
2018-08-06T13:22:16.553Z,2.00
2018-08-06T13:24:09.253Z,1.70
2018-08-06T13:25:09.291Z,1.90
2018-08-06T13:27:01.882Z,1.70
2018-08-06T13:28:01.758Z,1.60
2018-08-06T13:29:54.467Z,1.90
2018-08-06T13:30:54.373Z,1.70
2018-08-06T13:32:47.103Z,2.00
2018-08-06T13:33:46.983Z,1.90
2018-08-06T13:35:39.685Z,1.80
2018-08-06T13:36:39.602Z,1.90
2018-08-06T13:38:32.312Z,1.90
2018-08-06T13:39:32.185Z,2.00
2018-08-06T13:41:24.904Z,2.00
2018-08-06T13:42:24.789Z,2.10
2018-08-06T13:44:17.551Z,2.00
2018-08-06T13:45:17.388Z,1.70
2018-08-06T13:47:10.181Z,2.20
2018-08-06T13:48:09.995Z,1.70
2018-08-06T13:50:02.701Z,1.90
2018-08-06T13:51:02.599Z,1.70
2018-08-06T13:52:55.348Z,2.00
2018-08-06T13:53:55.213Z,2.00
2018-08-06T13:55:47.906Z,1.80
2018-08-06T13:56:47.811Z,2.20
2018-08-06T13:58:40.526Z,1.80
2018-08-06T13:59:40.421Z,2.00
2018-08-06T14:01:33.131Z,2.00
2018-08-06T14:02:33.024Z,1.60
2018-08-06T14:04:25.726Z,2.20
2018-08-06T14:05:25.671Z,1.60
2018-08-06T14:07:18.345Z,1.90
2018-08-06T14:08:18.230Z,1.90
2018-08-06T14:10:10.944Z,2.00
2018-08-06T14:11:10.887Z,1.90
2018-08-06T14:13:03.558Z,2.00
2018-08-06T14:14:03.443Z,2.10
2018-08-06T14:15:56.183Z,1.80
2018-08-06T14:16:56.111Z,2.00
2018-08-06T14:18:48.767Z,1.90
2018-08-06T14:19:48.671Z,2.20
2018-08-06T14:21:41.389Z,2.00
2018-08-06T14:22:41.279Z,2.00
2018-08-06T14:24:33.970Z,1.90
2018-08-06T14:25:33.878Z,2.10
2018-08-06T14:27:26.600Z,2.10
2018-08-06T14:28:26.482Z,1.90
2018-08-06T14:30:19.176Z,2.00
2018-08-06T14:31:19.082Z,2.00
2018-08-06T14:33:11.795Z,2.10
2018-08-06T14:34:11.691Z,2.00
2018-08-06T14:36:04.394Z,1.80
2018-08-06T14:37:04.284Z,1.90
2018-08-06T14:38:56.977Z,2.10
2018-08-06T14:39:56.883Z,2.00
2018-08-06T14:41:49.612Z,2.10
2018-08-06T14:42:49.504Z,1.90
2018-08-06T14:44:42.196Z,2.00
2018-08-06T14:45:42.098Z,2.10
2018-08-06T14:47:34.811Z,1.80
2018-08-06T14:48:34.707Z,2.20
2018-08-06T14:50:28.389Z,2.20
2018-08-06T14:51:28.300Z,1.80
2018-08-06T14:53:21.007Z,2.20
2018-08-06T14:54:20.899Z,2.20
2018-08-06T14:56:13.605Z,1.80
2018-08-06T14:57:13.496Z,2.10
2018-08-06T14:59:06.201Z,2.20
2018-08-06T15:00:06.104Z,2.10
2018-08-06T15:01:58.831Z,2.10
2018-08-06T15:02:58.701Z,2.00
2018-08-06T15:04:51.445Z,2.10
2018-08-06T15:05:51.310Z,1.90
2018-08-06T15:07:44.032Z,2.30
2018-08-06T15:08:43.902Z,2.00
2018-08-06T15:10:36.598Z,2.20
2018-08-06T15:11:36.508Z,2.00
2018-08-06T15:13:29.223Z,2.30
2018-08-06T15:14:29.112Z,1.90
2018-08-06T15:16:21.826Z,2.00
2018-08-06T15:17:21.711Z,2.30
2018-08-06T15:19:14.410Z,2.10
2018-08-06T15:20:14.311Z,2.10
2018-08-06T15:22:07.031Z,2.10
2018-08-06T15:23:06.917Z,2.00
2018-08-06T15:24:59.790Z,1.90
2018-08-06T15:25:59.703Z,2.00
2018-08-06T15:27:52.414Z,2.30
2018-08-06T15:28:52.298Z,2.00
2018-08-06T15:30:44.994Z,2.20
2018-08-06T15:31:44.901Z,2.10
2018-08-06T15:33:37.680Z,2.00
2018-08-06T15:34:37.503Z,2.30
2018-08-06T15:36:30.212Z,2.10
2018-08-06T15:37:30.153Z,2.10
2018-08-06T15:39:22.791Z,2.00
2018-08-06T15:40:22.694Z,2.30
2018-08-06T15:42:15.407Z,2.00
2018-08-06T15:43:15.294Z,2.30
2018-08-06T15:45:07.985Z,2.20
2018-08-06T15:46:07.891Z,2.10
2018-08-06T15:48:00.609Z,2.30
2018-08-06T15:49:00.490Z,2.10
2018-08-06T15:50:53.192Z,2.10
2018-08-06T15:51:53.123Z,2.10
2018-08-06T15:53:46.870Z,2.10
2018-08-06T15:54:46.756Z,2.20
2018-08-06T15:56:39.487Z,2.30
2018-08-06T15:57:39.367Z,2.10
2018-08-06T15:59:32.066Z,2.20
2018-08-06T16:00:31.970Z,2.30
2018-08-06T16:02:24.679Z,2.30
2018-08-06T16:03:24.618Z,1.90
2018-08-06T16:05:17.262Z,2.00
2018-08-06T16:06:17.166Z,2.10
2018-08-06T16:08:09.885Z,2.40
2018-08-06T16:09:09.779Z,2.10
2018-08-06T16:11:02.487Z,2.50
2018-08-06T16:12:02.375Z,2.10
2018-08-06T16:13:55.071Z,2.30
2018-08-06T16:14:54.979Z,2.00
2018-08-06T16:16:47.692Z,2.20
2018-08-06T16:17:47.579Z,2.10
2018-08-06T16:19:40.283Z,2.00
2018-08-06T16:20:40.249Z,2.00
2018-08-06T16:22:32.897Z,2.10
2018-08-06T16:23:32.781Z,2.10
2018-08-06T16:25:25.479Z,1.90
2018-08-06T16:26:25.401Z,2.50
2018-08-06T16:28:18.100Z,2.10
2018-08-06T16:29:17.985Z,2.40
2018-08-06T16:31:10.757Z,2.10
2018-08-06T16:32:10.588Z,2.10
2018-08-06T16:34:03.281Z,2.40
2018-08-06T16:35:03.182Z,2.50
2018-08-06T16:36:55.908Z,2.10
2018-08-06T16:37:55.810Z,2.20
2018-08-06T16:39:48.489Z,2.20
2018-08-06T16:40:48.392Z,2.40
2018-08-06T16:42:41.119Z,2.10
2018-08-06T16:43:40.988Z,2.40
2018-08-06T16:45:33.695Z,2.20
2018-08-06T16:46:33.604Z,2.10
2018-08-06T16:48:26.318Z,2.10
2018-08-06T16:49:26.199Z,2.30
2018-08-06T16:51:18.918Z,2.00
2018-08-06T16:52:18.829Z,2.20
2018-08-06T16:54:11.502Z,2.30
2018-08-06T16:55:11.405Z,2.20
2018-08-06T16:57:04.135Z,2.20
2018-08-06T16:58:04.023Z,2.40
2018-08-06T16:59:56.718Z,2.10
2018-08-06T17:00:56.697Z,2.30
2018-08-06T17:02:49.347Z,2.40
2018-08-06T17:03:49.229Z,2.00
2018-08-06T17:05:41.923Z,2.00
2018-08-06T17:06:41.878Z,1.80
2018-08-06T17:08:34.554Z,2.20
2018-08-06T17:09:34.444Z,2.30
2018-08-06T17:11:27.159Z,2.20
2018-08-06T17:12:27.066Z,2.40
2018-08-06T17:14:19.756Z,2.40
2018-08-06T17:15:19.666Z,2.20
2018-08-06T17:17:12.387Z,2.10
2018-08-06T17:18:12.272Z,2.20
2018-08-06T17:20:04.971Z,2.10
2018-08-06T17:21:04.870Z,2.00
2018-08-06T17:22:57.587Z,2.10
2018-08-06T17:23:57.468Z,2.20
2018-08-06T17:25:50.156Z,2.20
2018-08-06T17:26:50.065Z,3.50
2018-08-06T17:28:42.784Z,2.10
2018-08-06T17:29:42.669Z,2.20
2018-08-06T17:31:35.382Z,2.30
2018-08-06T17:32:35.270Z,1.90
2018-08-06T17:34:27.971Z,2.30
2018-08-06T17:35:27.878Z,2.20
2018-08-06T17:37:20.591Z,1.90
2018-08-06T17:38:20.477Z,2.30
2018-08-06T17:40:13.183Z,2.20
2018-08-06T17:41:13.079Z,2.40
2018-08-06T17:43:05.805Z,2.30
2018-08-06T17:44:05.756Z,2.20
2018-08-06T17:45:58.380Z,2.10
2018-08-06T17:46:58.285Z,2.10
2018-08-06T17:48:51.009Z,2.40
2018-08-06T17:49:50.897Z,2.10
2018-08-06T17:51:43.609Z,2.20
2018-08-06T17:52:43.492Z,2.20
2018-08-06T17:54:36.187Z,2.20
2018-08-06T17:55:36.171Z,2.60
2018-08-06T17:57:28.810Z,2.50
2018-08-06T17:58:28.697Z,2.60
2018-08-06T18:00:21.413Z,2.80
2018-08-06T18:01:21.336Z,2.80
2018-08-06T18:03:14.165Z,2.60
2018-08-06T18:04:13.925Z,2.40
2018-08-06T18:06:06.625Z,2.70
2018-08-06T18:07:06.524Z,2.50
2018-08-06T18:08:59.311Z,2.50
2018-08-06T18:09:59.128Z,2.30
2018-08-06T18:11:51.843Z,2.50
2018-08-06T18:12:51.726Z,2.60
2018-08-06T18:14:44.465Z,2.60
2018-08-06T18:15:44.337Z,2.40
2018-08-06T18:17:37.065Z,2.60
2018-08-06T18:18:36.950Z,2.70
2018-08-06T18:20:29.640Z,3.00
2018-08-06T18:21:29.541Z,2.50
2018-08-06T18:23:22.252Z,2.30
2018-08-06T18:24:22.136Z,2.70
2018-08-06T18:26:14.830Z,2.50
2018-08-06T18:27:14.734Z,2.30
2018-08-06T18:29:07.445Z,2.60
2018-08-06T18:30:07.327Z,2.40
2018-08-06T18:32:00.040Z,2.40
2018-08-06T18:32:59.928Z,2.40
2018-08-06T18:34:52.616Z,3.10
2018-08-06T18:35:52.514Z,2.90
2018-08-06T18:37:45.737Z,3.10
2018-08-06T18:38:45.618Z,3.10
2018-08-06T18:40:38.310Z,3.00
2018-08-06T18:41:38.248Z,2.70
2018-08-06T18:43:30.921Z,2.50
2018-08-06T18:44:30.808Z,2.80
2018-08-06T18:46:23.515Z,2.70
2018-08-06T18:47:23.403Z,2.90
2018-08-06T18:49:16.089Z,2.60
2018-08-06T18:50:15.994Z,2.90
2018-08-06T18:52:08.757Z,2.80
2018-08-06T18:53:08.587Z,2.60
2018-08-06T18:55:01.283Z,2.60
2018-08-06T18:56:01.185Z,2.60
2018-08-06T18:57:53.976Z,2.70
2018-08-06T18:58:53.816Z,3.00
2018-08-06T19:00:46.500Z,3.40
2018-08-06T19:01:46.402Z,3.60
2018-08-06T19:03:39.113Z,3.70
2018-08-06T19:04:39.000Z,3.40
2018-08-06T19:06:32.211Z,3.40
2018-08-06T19:07:32.178Z,3.00
2018-08-06T19:09:24.781Z,3.00
2018-08-06T19:10:24.681Z,3.00
2018-08-06T19:12:17.393Z,3.20
2018-08-06T19:13:17.275Z,3.20
2018-08-06T19:15:09.973Z,3.00
2018-08-06T19:16:09.876Z,2.90
2018-08-06T19:18:02.587Z,3.10
2018-08-06T19:19:02.473Z,3.30
2018-08-06T19:20:55.655Z,2.50
2018-08-06T19:21:55.561Z,2.70
2018-08-06T19:23:48.266Z,2.70
2018-08-06T19:24:48.147Z,2.60
2018-08-06T19:26:40.851Z,2.90
2018-08-06T19:27:40.743Z,2.70
2018-08-06T19:29:33.425Z,3.10
2018-08-06T19:30:33.326Z,3.40
2018-08-06T19:32:26.029Z,3.50
2018-08-06T19:33:25.912Z,3.20
2018-08-06T19:35:18.603Z,2.80
2018-08-06T19:36:18.505Z,2.70
2018-08-06T19:38:11.224Z,3.00
2018-08-06T19:39:11.107Z,2.90
2018-08-06T19:41:03.943Z,3.70
2018-08-06T19:42:03.691Z,3.60
2018-08-06T19:43:56.402Z,3.40
2018-08-06T19:44:56.294Z,3.40
2018-08-06T19:46:48.997Z,3.40
2018-08-06T19:47:48.882Z,3.20
2018-08-06T19:49:41.576Z,4.70
2018-08-06T19:50:41.476Z,5.40
2018-08-06T19:52:34.184Z,4.50
2018-08-06T19:53:34.069Z,5.40
2018-08-06T19:55:26.777Z,4.50
2018-08-06T19:56:26.678Z,4.00
2018-08-06T19:58:19.384Z,4.80
2018-08-06T19:59:19.352Z,4.50
2018-08-06T20:01:11.962Z,3.90
2018-08-06T20:02:11.889Z,3.60
2018-08-06T20:04:04.584Z,3.60
2018-08-06T20:05:04.458Z,3.20
2018-08-06T20:06:57.164Z,3.40
2018-08-06T20:07:57.072Z,3.50
2018-08-06T20:09:49.762Z,3.30
2018-08-06T20:10:49.643Z,3.80
2018-08-06T20:12:42.336Z,4.40
2018-08-06T20:13:42.233Z,3.70
2018-08-06T20:15:34.947Z,3.40
2018-08-06T20:16:34.829Z,3.10
2018-08-06T20:18:27.541Z,3.40
2018-08-06T20:19:27.421Z,3.70
2018-08-06T20:21:20.111Z,3.70
2018-08-06T20:22:20.035Z,3.00
2018-08-06T20:24:12.754Z,3.40
2018-08-06T20:25:12.651Z,3.20
2018-08-06T20:27:05.334Z,3.70
2018-08-06T20:28:05.229Z,3.40
2018-08-06T20:29:57.943Z,3.40
2018-08-06T20:30:57.824Z,3.80
2018-08-06T20:32:50.511Z,3.70
2018-08-06T20:33:50.414Z,3.60
2018-08-06T20:35:43.127Z,3.70
2018-08-06T20:36:43.033Z,3.30
2018-08-06T20:38:35.721Z,4.00
2018-08-06T20:39:35.616Z,3.60
2018-08-06T20:41:28.297Z,3.80
2018-08-06T20:42:28.216Z,3.80
2018-08-06T20:44:20.895Z,3.80
2018-08-06T20:45:20.830Z,4.00
2018-08-06T20:47:13.509Z,3.90
2018-08-06T20:48:13.410Z,3.60
2018-08-06T20:50:06.450Z,3.90
2018-08-06T20:51:05.999Z,3.90
2018-08-06T20:52:58.682Z,4.10
2018-08-06T20:53:58.580Z,3.90
2018-08-06T20:55:51.287Z,3.90
2018-08-06T20:56:51.183Z,4.10
2018-08-06T20:58:43.885Z,4.60
2018-08-06T20:59:43.789Z,4.50
2018-08-06T21:01:36.482Z,4.90
2018-08-06T21:02:36.507Z,4.60
2018-08-06T21:04:29.081Z,4.40
2018-08-06T21:05:28.971Z,4.20
2018-08-06T21:07:21.663Z,4.30
2018-08-06T21:08:21.562Z,4.60
2018-08-06T21:10:14.295Z,3.90
2018-08-06T21:11:14.182Z,4.20
2018-08-06T21:13:06.858Z,4.20
2018-08-06T21:14:06.740Z,4.00
2018-08-06T21:15:59.434Z,4.50
2018-08-06T21:16:59.337Z,4.20
2018-08-06T21:18:52.042Z,4.40
2018-08-06T21:19:51.920Z,4.30
2018-08-06T21:21:44.613Z,4.40
2018-08-06T21:22:44.513Z,4.50
2018-08-06T21:24:37.255Z,4.30
2018-08-06T21:25:37.132Z,4.50
2018-08-06T21:27:29.812Z,4.40
2018-08-06T21:28:29.716Z,4.80
2018-08-06T21:30:22.935Z,4.70
2018-08-06T21:31:22.812Z,4.80
2018-08-06T21:33:15.554Z,6.70
2018-08-06T21:34:15.396Z,6.30
2018-08-06T21:36:08.084Z,5.40
2018-08-06T21:37:07.983Z,5.60
2018-08-06T21:39:00.741Z,4.60
2018-08-06T21:40:00.571Z,4.50
2018-08-06T21:41:53.763Z,4.50
2018-08-06T21:42:53.666Z,4.50
2018-08-06T21:44:46.539Z,4.80
2018-08-06T21:45:46.295Z,4.70
2018-08-06T21:47:38.946Z,4.50
2018-08-06T21:48:38.838Z,4.50
2018-08-06T21:50:31.595Z,4.50
2018-08-06T21:51:31.428Z,4.90
2018-08-06T21:53:24.140Z,4.70
2018-08-06T21:54:24.022Z,4.20
2018-08-06T21:56:16.712Z,4.30
2018-08-06T21:57:16.617Z,4.60
2018-08-06T21:59:09.309Z,4.30
